createdAt,value
2022-12-12T00:01:49.833Z,29.50
2022-12-12T00:04:21.686Z,29.80
2022-12-12T00:06:53.639Z,29.60
2022-12-12T00:09:25.611Z,26.00
2022-12-12T00:11:57.520Z,27.30
2022-12-12T00:14:29.885Z,29.00
2022-12-12T00:17:01.745Z,28.80
2022-12-12T00:19:33.799Z,26.70
2022-12-12T00:22:05.604Z,27.60
2022-12-12T00:24:37.478Z,25.50
2022-12-12T00:27:09.472Z,26.50
2022-12-12T00:29:41.364Z,25.10
2022-12-12T00:32:13.153Z,25.90
2022-12-12T00:34:45.074Z,25.60
2022-12-12T00:37:17.014Z,26.50
2022-12-12T00:39:48.979Z,24.60
2022-12-12T00:42:20.984Z,26.20
2022-12-12T00:44:52.867Z,25.80
2022-12-12T00:47:24.744Z,26.10
2022-12-12T00:49:56.672Z,24.70
2022-12-12T00:52:28.524Z,23.60
2022-12-12T00:55:00.487Z,24.20
2022-12-12T00:57:32.297Z,24.00
2022-12-12T01:00:11.778Z,23.50
2022-12-12T01:02:44.322Z,22.70
2022-12-12T01:05:17.335Z,22.40
2022-12-12T01:07:49.251Z,24.70
2022-12-12T01:10:26.628Z,24.10
2022-12-12T01:12:58.418Z,23.10
2022-12-12T01:15:30.723Z,23.60
2022-12-12T01:18:02.602Z,21.50
2022-12-12T01:20:35.155Z,23.90
2022-12-12T01:23:07.043Z,23.40
2022-12-12T01:25:38.957Z,21.80
2022-12-12T01:28:11.172Z,23.30
2022-12-12T01:30:43.319Z,22.10
2022-12-12T01:33:15.188Z,21.50
2022-12-12T01:35:47.032Z,20.30
2022-12-12T01:38:19.183Z,22.20
2022-12-12T01:40:51.257Z,22.00
2022-12-12T01:43:24.555Z,22.10
2022-12-12T01:46:33.518Z,21.00
2022-12-12T01:49:14.300Z,20.20
2022-12-12T01:51:47.612Z,22.10
2022-12-12T01:54:25.373Z,21.20
2022-12-12T01:56:59.728Z,21.90
2022-12-12T01:59:34.977Z,20.30
2022-12-12T02:02:07.430Z,22.20
2022-12-12T02:04:39.898Z,21.00
2022-12-12T02:07:11.794Z,20.30
2022-12-12T02:09:43.775Z,19.90
2022-12-12T02:12:16.810Z,20.40
2022-12-12T02:14:51.749Z,21.50
2022-12-12T02:17:36.157Z,20.90
2022-12-12T02:20:40.927Z,21.80
2022-12-12T02:23:52.780Z,20.20
2022-12-12T02:26:46.653Z,22.10
2022-12-12T02:29:49.612Z,21.20
2022-12-12T02:32:32.474Z,20.20
2022-12-12T02:35:13.000Z,18.60
2022-12-12T02:37:53.168Z,20.50
2022-12-12T02:40:39.799Z,20.70
2022-12-12T02:43:19.833Z,18.50
2022-12-12T02:45:57.893Z,20.30
2022-12-12T02:48:36.579Z,18.90
2022-12-12T02:51:11.997Z,17.60
2022-12-12T02:53:43.788Z,18.30
2022-12-12T02:56:45.409Z,19.50
2022-12-12T02:59:22.600Z,19.40
2022-12-12T03:02:18.567Z,18.70
2022-12-12T03:05:23.844Z,20.00
2022-12-12T03:08:04.647Z,17.70
2022-12-12T03:10:50.413Z,19.20
2022-12-12T03:13:36.787Z,19.00
2022-12-12T03:16:20.363Z,17.70
2022-12-12T03:18:59.871Z,20.10
2022-12-12T03:21:40.983Z,20.00
2022-12-12T03:26:50.334Z,18.10
2022-12-12T03:29:26.866Z,18.10
2022-12-12T03:32:04.543Z,19.20
2022-12-12T03:34:40.737Z,19.70
2022-12-12T03:37:19.045Z,19.00
2022-12-12T03:39:54.524Z,19.40
2022-12-12T03:42:31.191Z,19.10
2022-12-12T03:45:06.748Z,18.60
2022-12-12T03:47:47.083Z,18.20
2022-12-12T03:50:25.618Z,19.90
2022-12-12T03:53:02.384Z,19.80
2022-12-12T03:55:42.126Z,19.10
2022-12-12T03:58:20.121Z,18.20
2022-12-12T04:00:55.852Z,17.90
2022-12-12T04:03:34.138Z,18.20
2022-12-12T04:06:30.681Z,18.30
2022-12-12T04:09:25.605Z,17.60
2022-12-12T04:12:25.320Z,18.30
2022-12-12T04:15:14.123Z,18.60
2022-12-12T04:17:56.032Z,18.10
2022-12-12T04:20:51.484Z,18.80
2022-12-12T04:23:33.477Z,17.40
2022-12-12T04:26:29.186Z,19.70
2022-12-12T04:29:09.043Z,17.50
2022-12-12T04:31:46.509Z,17.40
2022-12-12T04:34:27.691Z,17.30
2022-12-12T04:39:31.651Z,17.90
2022-12-12T04:42:05.987Z,18.90
2022-12-12T04:44:41.378Z,18.40
2022-12-12T04:47:15.618Z,19.70
2022-12-12T04:49:51.281Z,21.20
2022-12-12T04:52:25.321Z,19.10
2022-12-12T04:55:04.713Z,21.00
2022-12-12T04:57:40.101Z,17.80
2022-12-12T05:00:20.841Z,18.90
2022-12-12T05:03:00.687Z,21.50
2022-12-12T05:05:37.482Z,20.80
2022-12-12T05:08:13.457Z,19.10
2022-12-12T05:10:48.300Z,19.50
2022-12-12T05:13:23.256Z,19.20
2022-12-12T05:15:59.732Z,19.30
2022-12-12T05:18:31.788Z,19.60
2022-12-12T05:21:03.612Z,18.80
2022-12-12T05:23:35.519Z,20.50
2022-12-12T05:26:11.259Z,19.70
2022-12-12T05:28:43.036Z,19.00
2022-12-12T05:31:14.850Z,18.90
2022-12-12T05:33:46.937Z,19.10
2022-12-12T05:36:19.806Z,18.10
2022-12-12T05:38:51.679Z,18.80
2022-12-12T05:41:23.620Z,17.20
2022-12-12T05:43:55.444Z,17.90
2022-12-12T05:46:27.438Z,16.60
2022-12-12T05:48:59.340Z,18.70
2022-12-12T05:51:31.263Z,16.30
2022-12-12T05:54:03.325Z,16.80
2022-12-12T05:56:35.228Z,18.20
2022-12-12T05:59:07.084Z,18.30
2022-12-12T06:01:38.973Z,16.20
2022-12-12T06:04:10.934Z,18.80
2022-12-12T06:06:43.010Z,19.00
2022-12-12T06:09:15.845Z,18.60
2022-12-12T06:11:47.712Z,16.90
2022-12-12T06:14:19.550Z,17.30
2022-12-12T06:16:51.514Z,16.90
2022-12-12T06:19:23.783Z,17.20
2022-12-12T06:21:55.621Z,17.90
2022-12-12T06:24:27.440Z,17.60
2022-12-12T06:26:59.317Z,18.20
2022-12-12T06:29:31.118Z,16.70
2022-12-12T06:32:02.969Z,17.50
2022-12-12T06:34:34.788Z,17.10
2022-12-12T06:37:12.899Z,15.90
2022-12-12T06:39:48.886Z,18.60
2022-12-12T06:42:20.765Z,18.60
2022-12-12T06:45:11.699Z,17.90
2022-12-12T06:47:44.228Z,18.10
2022-12-12T06:50:19.086Z,17.50
2022-12-12T06:52:55.988Z,17.20
2022-12-12T06:55:27.733Z,16.00
2022-12-12T06:57:59.425Z,17.50
2022-12-12T07:00:31.157Z,15.40
2022-12-12T07:03:04.263Z,16.20
2022-12-12T07:05:36.146Z,14.90
2022-12-12T07:08:08.093Z,16.50
2022-12-12T07:10:39.894Z,15.70
2022-12-12T07:13:11.717Z,15.10
2022-12-12T07:15:46.817Z,13.50
2022-12-12T07:18:19.398Z,13.70
2022-12-12T07:20:51.157Z,11.70
2022-12-12T07:23:23.070Z,13.90
2022-12-12T07:25:54.802Z,13.90
2022-12-12T07:28:27.098Z,14.10
2022-12-12T07:30:58.813Z,13.00
2022-12-12T07:33:41.086Z,12.30
2022-12-12T07:36:16.639Z,13.00
2022-12-12T07:38:48.364Z,12.10
2022-12-12T07:41:21.638Z,12.30
2022-12-12T07:43:53.491Z,12.50
2022-12-12T07:46:26.381Z,11.40
2022-12-12T07:48:58.260Z,11.80
2022-12-12T07:51:31.083Z,10.40
2022-12-12T07:54:03.280Z,10.50
2022-12-12T07:56:35.264Z,11.00
2022-12-12T07:59:07.144Z,8.70
2022-12-12T08:01:39.274Z,11.20
2022-12-12T08:04:11.191Z,9.80
2022-12-12T08:06:43.003Z,8.80
2022-12-12T08:09:14.744Z,10.00
2022-12-12T08:11:46.488Z,8.80
2022-12-12T08:14:18.695Z,9.20
2022-12-12T08:16:50.545Z,8.60
2022-12-12T08:19:22.310Z,9.70
2022-12-12T08:21:54.138Z,8.70
2022-12-12T08:24:25.886Z,8.10
2022-12-12T08:26:57.580Z,8.30
2022-12-12T08:29:29.306Z,8.30
2022-12-12T08:32:01.021Z,8.50
2022-12-12T08:34:32.701Z,7.40
2022-12-12T08:37:04.578Z,8.00
2022-12-12T08:39:37.012Z,8.30
2022-12-12T08:42:08.702Z,8.70
2022-12-12T08:44:40.635Z,8.50
2022-12-12T08:47:12.348Z,7.50
2022-12-12T08:49:44.264Z,7.90
2022-12-12T08:52:15.917Z,6.70
2022-12-12T08:54:47.644Z,6.80
2022-12-12T08:57:25.605Z,6.30
2022-12-12T08:59:57.804Z,6.50
2022-12-12T09:02:31.011Z,6.30
2022-12-12T09:05:02.854Z,5.60
2022-12-12T09:07:34.744Z,6.50
2022-12-12T09:10:16.364Z,6.10
2022-12-12T09:12:55.028Z,6.10
2022-12-12T09:15:26.728Z,5.20
2022-12-12T09:17:58.329Z,5.90
2022-12-12T09:20:30.706Z,6.30
2022-12-12T09:23:02.359Z,7.10
2022-12-12T09:25:34.058Z,6.50
2022-12-12T09:28:05.888Z,6.30
2022-12-12T09:30:37.608Z,5.80
2022-12-12T09:33:09.712Z,5.20
2022-12-12T09:35:42.012Z,6.30
2022-12-12T09:38:14.789Z,6.50
2022-12-12T09:40:54.676Z,7.00
2022-12-12T09:43:29.807Z,5.10
2022-12-12T09:46:03.803Z,5.00
2022-12-12T09:48:42.370Z,5.50
2022-12-12T09:51:15.058Z,5.10
2022-12-12T09:53:51.555Z,5.90
2022-12-12T09:56:32.731Z,5.40
2022-12-12T10:01:49.105Z,4.40
2022-12-12T10:07:02.635Z,4.20
2022-12-12T10:09:43.656Z,4.20
2022-12-12T10:12:18.099Z,5.10
2022-12-12T10:14:53.697Z,8.70
2022-12-12T10:17:32.622Z,10.70
2022-12-12T10:20:15.869Z,7.20
2022-12-12T10:22:57.656Z,6.00
2022-12-12T10:25:40.386Z,6.60
2022-12-12T10:28:15.504Z,9.50
2022-12-12T10:30:59.956Z,9.60
2022-12-12T10:33:44.125Z,5.90
2022-12-12T10:36:28.315Z,5.90
2022-12-12T10:39:16.229Z,5.10
2022-12-12T10:41:52.975Z,4.70
2022-12-12T10:44:47.469Z,4.60
2022-12-12T10:47:19.643Z,4.30
2022-12-12T10:49:52.601Z,3.90
2022-12-12T10:52:25.167Z,3.50
2022-12-12T10:55:00.121Z,3.60
2022-12-12T10:57:35.265Z,3.10
2022-12-12T11:00:27.503Z,3.20
2022-12-12T11:03:01.502Z,3.30
2022-12-12T11:05:37.957Z,2.90
2022-12-12T11:08:22.478Z,2.90
2022-12-12T11:11:07.590Z,2.80
2022-12-12T11:13:46.410Z,2.90
2022-12-12T11:16:20.159Z,2.80
2022-12-12T11:19:05.143Z,2.30
2022-12-12T11:21:39.746Z,2.50
2022-12-12T11:24:16.989Z,3.50
2022-12-12T11:26:52.996Z,3.10
2022-12-12T11:29:33.030Z,3.10
2022-12-12T11:32:05.287Z,3.00
2022-12-12T11:34:41.104Z,3.20
2022-12-12T11:37:18.260Z,3.50
2022-12-12T11:39:53.378Z,3.20
2022-12-12T11:42:29.245Z,3.60
2022-12-12T11:45:04.897Z,3.10
2022-12-12T11:47:42.517Z,3.00
2022-12-12T11:50:23.652Z,4.20
2022-12-12T11:52:59.256Z,3.40
2022-12-12T11:55:45.600Z,3.10
2022-12-12T11:58:23.907Z,3.30
2022-12-12T12:01:04.606Z,3.50
2022-12-12T12:03:58.640Z,3.70
2022-12-12T12:06:43.523Z,3.20
2022-12-12T12:09:23.886Z,3.90
2022-12-12T12:12:05.649Z,4.00
2022-12-12T12:14:56.814Z,3.50
2022-12-12T12:17:41.652Z,3.30
2022-12-12T12:20:28.454Z,3.60
2022-12-12T12:23:11.383Z,3.60
2022-12-12T12:25:50.914Z,3.90
2022-12-12T12:28:50.434Z,3.90
2022-12-12T12:31:32.161Z,3.80
2022-12-12T12:34:16.865Z,3.70
2022-12-12T12:37:07.122Z,3.60
2022-12-12T12:39:59.894Z,3.10
2022-12-12T12:42:49.462Z,3.20
2022-12-12T12:45:29.377Z,3.20
2022-12-12T12:48:10.397Z,4.20
2022-12-12T12:50:46.497Z,3.50
2022-12-12T12:53:31.105Z,3.50
2022-12-12T12:56:10.026Z,3.00
2022-12-12T12:58:47.146Z,3.20
2022-12-12T13:01:24.523Z,3.00
2022-12-12T13:04:03.091Z,3.60
2022-12-12T13:06:44.445Z,3.50
2022-12-12T13:09:25.206Z,4.10
2022-12-12T13:12:02.608Z,3.90
2022-12-12T13:14:43.687Z,3.10
2022-12-12T13:17:20.181Z,3.30
2022-12-12T13:19:55.009Z,3.70
2022-12-12T13:22:38.034Z,3.10
2022-12-12T13:25:17.775Z,3.10
2022-12-12T13:27:53.830Z,2.60
2022-12-12T13:30:38.062Z,3.20
2022-12-12T13:33:22.987Z,3.60
2022-12-12T13:35:59.514Z,3.90
2022-12-12T13:38:34.331Z,3.10
2022-12-12T13:41:08.266Z,3.90
2022-12-12T13:43:49.255Z,4.00
2022-12-12T13:46:42.374Z,3.90
2022-12-12T13:49:31.897Z,4.70
2022-12-12T13:52:31.547Z,5.10
2022-12-12T13:55:24.219Z,8.60
2022-12-12T13:58:29.669Z,6.60
2022-12-12T14:01:32.744Z,4.40
2022-12-12T14:04:05.043Z,3.50
2022-12-12T14:06:37.294Z,3.80
2022-12-12T14:09:27.731Z,3.90
2022-12-12T14:12:21.407Z,4.10
2022-12-12T14:15:00.786Z,5.40
2022-12-12T14:17:40.082Z,6.80
2022-12-12T14:20:32.444Z,5.70
2022-12-12T14:23:27.963Z,6.10
2022-12-12T14:26:00.988Z,6.70
2022-12-12T14:28:34.773Z,4.80
2022-12-12T14:31:15.045Z,5.40
2022-12-12T14:34:03.320Z,4.30
2022-12-12T14:37:04.896Z,4.80
2022-12-12T14:39:58.601Z,3.90
2022-12-12T14:43:20.438Z,4.10
2022-12-12T14:45:34.352Z,4.70
2022-12-12T14:48:22.113Z,4.20
2022-12-12T14:50:58.481Z,4.60
2022-12-12T14:53:32.914Z,4.10
2022-12-12T14:56:10.158Z,4.50
2022-12-12T14:58:46.094Z,4.40
2022-12-12T15:01:28.004Z,3.60
2022-12-12T15:04:00.678Z,4.00
2022-12-12T15:06:35.365Z,3.90
2022-12-12T15:09:29.441Z,4.60
2022-12-12T15:12:15.425Z,6.40
2022-12-12T15:14:57.101Z,5.70
2022-12-12T15:17:31.144Z,4.20
2022-12-12T15:20:14.695Z,5.10
2022-12-12T15:22:54.509Z,7.10
2022-12-12T15:25:28.491Z,5.00
2022-12-12T15:28:00.775Z,4.70
2022-12-12T15:30:37.161Z,5.00
2022-12-12T15:33:17.503Z,5.30
2022-12-12T15:35:57.893Z,5.80
2022-12-12T15:38:33.857Z,5.60
2022-12-12T15:41:13.229Z,4.70
2022-12-12T15:43:45.578Z,4.70
2022-12-12T15:46:18.128Z,4.80
2022-12-12T15:48:52.468Z,5.30
2022-12-12T15:51:29.774Z,5.30
2022-12-12T15:54:08.575Z,5.30
2022-12-12T15:56:40.400Z,4.80
2022-12-12T15:59:23.928Z,4.70
2022-12-12T16:01:55.693Z,5.60
2022-12-12T16:04:27.858Z,5.20
2022-12-12T16:07:22.470Z,5.50
2022-12-12T16:10:25.642Z,5.60
2022-12-12T16:13:02.836Z,5.00
2022-12-12T16:15:39.316Z,4.80
2022-12-12T16:18:19.136Z,5.90
2022-12-12T16:20:53.182Z,6.00
2022-12-12T16:23:31.230Z,5.80
2022-12-12T16:26:02.871Z,6.20
2022-12-12T16:28:34.817Z,9.00
2022-12-12T16:31:15.459Z,11.60
2022-12-12T16:33:47.255Z,10.30
2022-12-12T16:36:19.092Z,9.90
2022-12-12T16:38:50.772Z,7.20
2022-12-12T16:41:23.028Z,7.10
2022-12-12T16:43:54.950Z,6.70
2022-12-12T16:46:27.759Z,7.10
2022-12-12T16:49:04.601Z,8.00
2022-12-12T16:51:40.935Z,9.30
2022-12-12T16:54:17.967Z,8.60
2022-12-12T16:56:52.684Z,7.00
2022-12-12T16:59:24.582Z,7.20
2022-12-12T17:01:56.642Z,7.10
2022-12-12T17:04:28.971Z,8.00
2022-12-12T17:07:00.676Z,8.00
2022-12-12T17:09:32.358Z,8.20
2022-12-12T17:12:04.107Z,9.20
2022-12-12T17:14:37.599Z,7.00
2022-12-12T17:17:09.371Z,6.90
2022-12-12T17:19:41.205Z,7.00
2022-12-12T17:22:13.201Z,7.80
2022-12-12T17:24:45.063Z,9.60
2022-12-12T17:27:16.722Z,7.60
2022-12-12T17:29:48.544Z,7.30
2022-12-12T17:32:24.371Z,6.80
2022-12-12T17:34:56.469Z,7.40
2022-12-12T17:37:28.292Z,8.10
2022-12-12T17:40:00.167Z,8.30
2022-12-12T17:42:33.701Z,8.40
2022-12-12T17:45:06.358Z,9.60
2022-12-12T17:47:38.189Z,9.00
2022-12-12T17:50:15.284Z,12.50
2022-12-12T17:52:47.089Z,14.30
2022-12-12T17:55:51.507Z,11.10
2022-12-12T17:58:10.711Z,8.40
2022-12-12T18:00:42.585Z,8.20
2022-12-12T18:03:14.227Z,8.10
2022-12-12T18:05:46.095Z,7.40
2022-12-12T18:08:18.411Z,7.20
2022-12-12T18:10:50.068Z,8.10
2022-12-12T18:13:21.741Z,7.10
2022-12-12T18:15:57.886Z,6.80
2022-12-12T18:18:30.003Z,7.10
2022-12-12T18:21:06.941Z,7.40
2022-12-12T18:23:38.979Z,6.90
2022-12-12T18:26:17.235Z,6.80
2022-12-12T18:28:59.402Z,8.10
2022-12-12T18:31:32.487Z,8.20
2022-12-12T18:34:04.961Z,7.60
2022-12-12T18:36:36.724Z,7.00
2022-12-12T18:39:09.573Z,8.10
2022-12-12T18:41:41.242Z,7.40
2022-12-12T18:44:15.037Z,8.00
2022-12-12T18:46:46.899Z,8.60
2022-12-12T18:49:18.950Z,9.10
2022-12-12T18:51:50.715Z,8.00
2022-12-12T18:54:22.526Z,7.70
2022-12-12T18:56:54.365Z,8.20
2022-12-12T18:59:26.054Z,8.30
2022-12-12T19:01:57.810Z,7.70
2022-12-12T19:04:29.626Z,7.90
2022-12-12T19:07:01.284Z,8.00
2022-12-12T19:09:33.200Z,7.40
2022-12-12T19:12:05.432Z,7.20
2022-12-12T19:14:52.729Z,7.50
2022-12-12T19:17:29.140Z,6.90
2022-12-12T19:20:01.053Z,6.70
2022-12-12T19:22:44.975Z,7.40
2022-12-12T19:25:18.730Z,8.70
2022-12-12T19:27:50.525Z,7.50
2022-12-12T19:30:22.739Z,7.00
2022-12-12T19:32:54.616Z,8.10
2022-12-12T19:35:26.262Z,7.40
2022-12-12T19:37:58.201Z,7.10
2022-12-12T19:40:30.322Z,7.60
2022-12-12T19:43:02.018Z,7.40
2022-12-12T19:45:33.745Z,7.20
2022-12-12T19:48:05.700Z,8.00
2022-12-12T19:50:39.998Z,7.30
2022-12-12T19:53:12.212Z,7.10
2022-12-12T19:55:52.142Z,8.00
2022-12-12T19:58:23.844Z,7.30
2022-12-12T20:00:55.554Z,7.90
2022-12-12T20:03:27.536Z,7.80
2022-12-12T20:06:03.276Z,7.60
2022-12-12T20:08:36.143Z,7.50
2022-12-12T20:11:10.209Z,8.20
2022-12-12T20:13:42.541Z,8.00
2022-12-12T20:16:17.328Z,7.80
2022-12-12T20:18:50.280Z,8.10
2022-12-12T20:21:59.361Z,7.40
2022-12-12T20:24:17.701Z,7.10
2022-12-12T20:26:49.560Z,7.80
2022-12-12T20:29:21.740Z,8.30
2022-12-12T20:31:53.584Z,8.30
2022-12-12T20:34:25.531Z,8.60
2022-12-12T20:36:57.591Z,9.80
2022-12-12T20:39:29.600Z,9.00
2022-12-12T20:42:01.277Z,8.70
2022-12-12T20:44:33.020Z,7.80
2022-12-12T20:47:06.626Z,8.60
2022-12-12T20:49:38.603Z,9.00
2022-12-12T20:52:10.314Z,8.30
2022-12-12T20:54:42.057Z,8.80
2022-12-12T20:57:13.796Z,8.90
2022-12-12T20:59:45.494Z,8.00
2022-12-12T21:02:17.560Z,8.30
2022-12-12T21:04:50.091Z,8.90
2022-12-12T21:07:21.787Z,8.70
2022-12-12T21:09:53.427Z,8.80
2022-12-12T21:12:25.180Z,10.40
2022-12-12T21:15:01.130Z,8.50
2022-12-12T21:17:34.507Z,8.10
2022-12-12T21:20:18.142Z,9.20
2022-12-12T21:22:58.146Z,8.30
2022-12-12T21:25:29.817Z,8.40
2022-12-12T21:28:01.549Z,7.00
2022-12-12T21:30:33.215Z,7.50
2022-12-12T21:33:04.844Z,8.10
2022-12-12T21:35:38.066Z,8.20
2022-12-12T21:38:09.690Z,8.10
2022-12-12T21:40:41.477Z,7.80
2022-12-12T21:43:13.155Z,7.30
2022-12-12T21:45:44.877Z,8.00
2022-12-12T21:48:16.571Z,7.50
2022-12-12T21:50:48.349Z,7.40
2022-12-12T21:53:35.017Z,7.20
2022-12-12T21:56:11.971Z,8.00
2022-12-12T21:58:44.946Z,7.80
2022-12-12T22:01:18.899Z,7.30
2022-12-12T22:03:51.168Z,7.80
2022-12-12T22:06:25.200Z,7.20
2022-12-12T22:08:58.849Z,7.40
2022-12-12T22:11:39.902Z,6.90
2022-12-12T22:14:19.923Z,6.80
2022-12-12T22:16:51.839Z,6.30
2022-12-12T22:19:23.504Z,6.60
2022-12-12T22:21:55.146Z,7.40
2022-12-12T22:24:27.255Z,6.80
2022-12-12T22:26:58.994Z,7.50
2022-12-12T22:29:30.768Z,7.40
2022-12-12T22:32:02.471Z,7.40
2022-12-12T22:34:34.072Z,6.60
2022-12-12T22:37:05.972Z,7.20
2022-12-12T22:39:37.609Z,6.70
2022-12-12T22:42:09.550Z,7.30
2022-12-12T22:44:41.242Z,7.10
2022-12-12T22:47:12.986Z,6.70
2022-12-12T22:49:44.702Z,6.70
2022-12-12T22:52:16.728Z,6.50
2022-12-12T22:54:48.412Z,6.80
2022-12-12T22:57:20.292Z,7.00
2022-12-12T22:59:51.937Z,6.90
2022-12-12T23:02:25.255Z,6.60
2022-12-12T23:04:57.512Z,7.10
2022-12-12T23:07:29.353Z,7.00
2022-12-12T23:10:02.454Z,6.10
2022-12-12T23:12:34.496Z,5.90
2022-12-12T23:15:07.158Z,6.80
2022-12-12T23:17:39.016Z,6.00
2022-12-12T23:20:14.933Z,6.90
2022-12-12T23:22:46.577Z,6.20
2022-12-12T23:25:18.561Z,7.30
2022-12-12T23:27:50.291Z,6.50
2022-12-12T23:30:29.004Z,6.10
2022-12-12T23:33:00.754Z,5.90
2022-12-12T23:35:32.380Z,4.90
2022-12-12T23:38:04.139Z,5.40
2022-12-12T23:40:36.505Z,5.00
2022-12-12T23:43:08.724Z,5.90
2022-12-12T23:45:41.023Z,5.50
2022-12-12T23:48:12.710Z,5.30
2022-12-12T23:50:44.417Z,5.70
2022-12-12T23:53:16.316Z,5.40
2022-12-12T23:55:47.997Z,4.40
2022-12-12T23:58:19.738Z,5.10
